New Suffolk, New York
Current Conditions -  °F | °C
As of 12:19 PM on Wednesday 26 Nov 2014 (Local Time) from KFOK Reporting Station
Heavy Rain Heavy Rain  
Wind Chill: 32°   Ceiling: 500
Heat Index: 40°   Visibility: 2mi
Dew Point: 37°   Wind: 15mph
Humidity: 89%   Direction: 10°N
Pressure: 29.98"   Gusts: 26mph
Location:  40.99°N, 72.48°W
Report Text: KFOK 261719Z 01013G23KT 2SM +RA BR OVC005 04/03 A2998 RMK AO2 CIG 004V009 P0006 T00440028
Loading
Personal Weather Stations






























Interactive Weather Map New forecast layout! Learn more

10-Day Weather Forecast

Advertisements
Track Severe Weather on mobile